createdAt,value
2022-10-11T00:01:39.061Z,16.23
2022-10-11T00:04:05.394Z,16.21
2022-10-11T00:06:31.895Z,16.18
2022-10-11T00:08:58.151Z,16.16
2022-10-11T00:11:24.457Z,16.13
2022-10-11T00:13:50.743Z,16.12
2022-10-11T00:16:17.138Z,16.10
2022-10-11T00:18:43.449Z,16.05
2022-10-11T00:21:11.975Z,16.02
2022-10-11T00:23:38.801Z,15.97
2022-10-11T00:26:07.278Z,15.93
2022-10-11T00:28:34.231Z,15.91
2022-10-11T00:31:00.546Z,15.88
2022-10-11T00:33:26.774Z,15.86
2022-10-11T00:35:53.101Z,15.84
2022-10-11T00:38:19.876Z,15.82
2022-10-11T00:40:46.336Z,15.80
2022-10-11T00:43:23.309Z,15.77
2022-10-11T00:45:55.652Z,15.75
2022-10-11T00:48:23.959Z,15.71
2022-10-11T00:50:50.377Z,15.67
2022-10-11T00:53:16.874Z,15.63
2022-10-11T00:55:46.979Z,15.60
2022-10-11T00:58:13.485Z,15.59
2022-10-11T01:00:39.925Z,15.56
2022-10-11T01:03:06.281Z,15.54
2022-10-11T01:05:32.524Z,15.52
2022-10-11T01:08:00.146Z,15.52
2022-10-11T01:10:27.528Z,15.50
2022-10-11T01:13:02.549Z,15.50
2022-10-11T01:15:36.148Z,15.50
2022-10-11T01:18:16.547Z,15.48
2022-10-11T01:20:57.519Z,15.46
2022-10-11T01:23:23.723Z,15.42
2022-10-11T01:25:49.928Z,15.41
2022-10-11T01:28:35.082Z,15.38
2022-10-11T01:31:11.406Z,15.34
2022-10-11T01:33:41.239Z,15.32
2022-10-11T01:36:27.610Z,15.29
2022-10-11T01:38:58.617Z,15.27
2022-10-11T01:41:27.612Z,15.25
2022-10-11T01:43:57.601Z,15.22
2022-10-11T01:46:24.250Z,15.20
2022-10-11T01:48:52.168Z,15.17
2022-10-11T01:51:21.931Z,15.16
2022-10-11T01:53:48.370Z,15.14
2022-10-11T01:56:14.784Z,15.13
2022-10-11T01:58:48.269Z,15.10
2022-10-11T02:01:28.609Z,15.10
2022-10-11T02:04:03.967Z,15.10
2022-10-11T02:06:49.218Z,15.09
2022-10-11T02:09:21.713Z,15.08
2022-10-11T02:11:47.926Z,15.06
2022-10-11T02:14:20.703Z,15.04
2022-10-11T02:16:50.105Z,15.04
2022-10-11T02:19:18.607Z,15.05
2022-10-11T02:21:47.323Z,15.05
2022-10-11T02:24:18.221Z,15.05
2022-10-11T02:26:47.639Z,15.04
2022-10-11T02:29:16.408Z,15.04
2022-10-11T02:31:43.597Z,15.03
2022-10-11T02:34:14.818Z,15.01
2022-10-11T02:36:41.020Z,15.01
2022-10-11T02:39:14.423Z,14.99
2022-10-11T02:41:42.909Z,14.99
2022-10-11T02:44:12.735Z,14.99
2022-10-11T02:46:39.958Z,14.97
2022-10-11T02:49:09.784Z,14.97
2022-10-11T02:51:36.095Z,14.95
2022-10-11T02:54:04.925Z,14.94
2022-10-11T02:56:31.322Z,14.91
2022-10-11T02:58:58.030Z,14.87
2022-10-11T03:01:24.349Z,14.85
2022-10-11T03:03:50.742Z,14.83
2022-10-11T03:06:16.953Z,14.79
2022-10-11T03:08:43.369Z,14.75
2022-10-11T03:11:09.795Z,14.73
2022-10-11T03:13:36.053Z,14.71
2022-10-11T03:16:07.392Z,14.69
2022-10-11T03:18:35.455Z,14.66
2022-10-11T03:21:01.710Z,14.64
2022-10-11T03:23:27.972Z,14.60
2022-10-11T03:25:54.565Z,14.58
2022-10-11T03:28:20.983Z,14.56
2022-10-11T03:30:48.270Z,14.53
2022-10-11T03:33:14.826Z,14.53
2022-10-11T03:35:43.720Z,14.51
2022-10-11T03:38:13.035Z,14.51
2022-10-11T03:40:39.749Z,14.49
2022-10-11T03:43:06.148Z,14.49
2022-10-11T03:45:32.429Z,14.48
2022-10-11T03:47:58.853Z,14.47
2022-10-11T03:50:26.062Z,14.46
2022-10-11T03:52:52.331Z,14.45
2022-10-11T03:55:22.974Z,14.45
2022-10-11T03:57:49.456Z,14.43
2022-10-11T04:00:15.777Z,14.42
2022-10-11T04:02:44.393Z,14.41
2022-10-11T04:05:12.502Z,14.41
2022-10-11T04:07:39.291Z,14.38
2022-10-11T04:10:06.154Z,14.37
2022-10-11T04:12:32.575Z,14.36
2022-10-11T04:14:58.817Z,14.35
2022-10-11T04:17:25.155Z,14.34
2022-10-11T04:19:51.374Z,14.33
2022-10-11T04:22:18.055Z,14.31
2022-10-11T04:24:44.933Z,14.32
2022-10-11T04:27:12.187Z,14.28
2022-10-11T04:29:38.391Z,14.28
2022-10-11T04:32:04.687Z,14.25
2022-10-11T04:34:31.540Z,14.23
2022-10-11T04:36:57.969Z,14.20
2022-10-11T04:39:24.386Z,14.17
2022-10-11T04:41:50.915Z,14.15
2022-10-11T04:44:17.157Z,14.11
2022-10-11T04:46:43.578Z,14.08
2022-10-11T04:49:09.809Z,14.06
2022-10-11T04:51:36.226Z,14.03
2022-10-11T04:54:02.536Z,14.00
2022-10-11T04:56:30.718Z,13.98
2022-10-11T04:58:57.197Z,13.95
2022-10-11T05:01:24.530Z,13.93
2022-10-11T05:03:50.958Z,13.93
2022-10-11T05:06:17.303Z,13.89
2022-10-11T05:08:46.379Z,13.87
2022-10-11T05:11:15.765Z,13.86
2022-10-11T05:13:42.598Z,13.84
2022-10-11T05:16:11.179Z,13.82
2022-10-11T05:18:38.296Z,13.82
2022-10-11T05:21:14.935Z,13.80
2022-10-11T05:23:41.268Z,13.79
2022-10-11T05:26:08.238Z,13.78
2022-10-11T05:28:37.894Z,13.76
2022-10-11T05:31:04.642Z,13.76
2022-10-11T05:33:31.155Z,13.73
2022-10-11T05:35:57.474Z,13.73
2022-10-11T05:38:24.053Z,13.70
2022-10-11T05:40:50.319Z,13.70
2022-10-11T05:43:16.583Z,13.69
2022-10-11T05:45:45.205Z,13.69
2022-10-11T05:48:11.664Z,13.67
2022-10-11T05:50:39.068Z,13.66
2022-10-11T05:53:06.083Z,13.65
2022-10-11T05:55:36.012Z,13.63
2022-10-11T05:58:02.293Z,13.63
2022-10-11T06:00:29.042Z,13.64
2022-10-11T06:02:55.349Z,13.64
2022-10-11T06:05:21.778Z,13.65
2022-10-11T06:07:48.076Z,13.67
2022-10-11T06:10:14.296Z,13.68
2022-10-11T06:12:40.566Z,13.69
2022-10-11T06:15:08.657Z,13.71
2022-10-11T06:17:35.332Z,13.70
2022-10-11T06:20:04.017Z,13.71
2022-10-11T06:22:30.511Z,13.72
2022-10-11T06:24:56.911Z,13.73
2022-10-11T06:27:24.048Z,13.75
2022-10-11T06:29:51.882Z,13.76
2022-10-11T06:32:18.132Z,13.80
2022-10-11T06:34:44.737Z,13.83
2022-10-11T06:37:10.983Z,13.86
2022-10-11T06:39:39.866Z,13.87
2022-10-11T06:42:07.121Z,13.92
2022-10-11T06:44:33.398Z,13.95
2022-10-11T06:46:59.798Z,13.99
2022-10-11T06:49:26.005Z,14.05
2022-10-11T06:51:52.601Z,14.10
2022-10-11T06:54:19.156Z,14.17
2022-10-11T06:56:45.778Z,14.22
2022-10-11T06:59:13.565Z,14.29
2022-10-11T07:01:39.927Z,14.36
2022-10-11T07:04:06.330Z,14.44
2022-10-11T07:06:37.435Z,14.50
2022-10-11T07:09:06.019Z,14.60
2022-10-11T07:11:32.669Z,14.66
2022-10-11T07:14:00.698Z,14.73
2022-10-11T07:16:27.971Z,14.81
2022-10-11T07:18:59.854Z,14.89
2022-10-11T07:21:26.736Z,14.97
2022-10-11T07:23:53.043Z,15.06
2022-10-11T07:26:22.418Z,15.15
2022-10-11T07:28:48.871Z,15.24
2022-10-11T07:31:16.986Z,15.34
2022-10-11T07:33:43.541Z,15.42
2022-10-11T07:36:11.437Z,15.50
2022-10-11T07:38:41.919Z,15.57
2022-10-11T07:41:11.520Z,15.64
2022-10-11T07:43:38.262Z,15.71
2022-10-11T07:46:05.692Z,15.78
2022-10-11T07:48:34.823Z,15.84
2022-10-11T07:51:02.095Z,15.92
2022-10-11T07:53:30.929Z,16.01
2022-10-11T07:55:59.807Z,16.10
2022-10-11T07:58:26.040Z,16.18
2022-10-11T08:00:53.355Z,16.27
2022-10-11T08:03:19.781Z,16.36
2022-10-11T08:05:46.272Z,16.46
2022-10-11T08:08:13.615Z,16.54
2022-10-11T08:10:40.335Z,16.62
2022-10-11T08:13:07.125Z,16.70
2022-10-11T08:15:33.534Z,16.80
2022-10-11T08:17:59.965Z,16.86
2022-10-11T08:20:26.492Z,16.93
2022-10-11T08:22:52.770Z,16.99
2022-10-11T08:25:19.134Z,17.04
2022-10-11T08:27:45.584Z,17.10
2022-10-11T08:30:12.280Z,17.17
2022-10-11T08:32:40.734Z,17.24
2022-10-11T08:35:07.320Z,17.30
2022-10-11T08:37:33.665Z,17.35
2022-10-11T08:40:05.669Z,17.39
2022-10-11T08:42:52.440Z,17.47
2022-10-11T08:45:28.242Z,17.55
2022-10-11T08:48:02.616Z,17.61
2022-10-11T08:50:31.959Z,17.67
2022-10-11T08:53:07.989Z,17.76
2022-10-11T08:55:34.887Z,17.83
2022-10-11T08:58:02.003Z,17.90
2022-10-11T09:00:30.633Z,17.99
2022-10-11T09:03:09.013Z,18.09
2022-10-11T09:05:39.420Z,18.17
2022-10-11T09:08:10.342Z,18.26
2022-10-11T09:10:56.391Z,18.36
2022-10-11T09:13:42.572Z,18.46
2022-10-11T09:16:09.017Z,18.56
2022-10-11T09:18:42.679Z,18.64
2022-10-11T09:21:27.666Z,18.72
2022-10-11T09:24:02.122Z,18.80
2022-10-11T09:26:33.496Z,18.86
2022-10-11T09:29:05.612Z,18.92
2022-10-11T09:31:32.513Z,18.98
2022-10-11T09:34:02.007Z,19.05
2022-10-11T09:36:33.900Z,19.10
2022-10-11T09:39:13.549Z,19.17
2022-10-11T09:42:00.140Z,19.25
2022-10-11T09:44:29.874Z,19.35
2022-10-11T09:46:57.081Z,19.44
2022-10-11T09:49:31.820Z,19.53
2022-10-11T09:52:00.364Z,19.62
2022-10-11T09:54:38.860Z,19.70
2022-10-11T09:57:05.490Z,19.80
2022-10-11T09:59:34.616Z,19.86
2022-10-11T10:02:06.803Z,19.93
2022-10-11T10:04:33.284Z,19.99
2022-10-11T10:07:12.885Z,20.07
2022-10-11T10:09:39.189Z,20.13
2022-10-11T10:12:12.131Z,20.20
2022-10-11T10:14:39.727Z,20.26
2022-10-11T10:17:13.213Z,20.32
2022-10-11T10:19:45.434Z,20.39
2022-10-11T10:22:17.363Z,20.45
2022-10-11T10:24:43.857Z,20.51
2022-10-11T10:27:10.149Z,20.58
2022-10-11T10:29:36.745Z,20.62
2022-10-11T10:32:14.239Z,20.64
2022-10-11T10:34:50.393Z,20.68
2022-10-11T10:37:27.036Z,20.70
2022-10-11T10:40:02.386Z,20.71
2022-10-11T10:42:29.047Z,20.72
2022-10-11T10:45:02.213Z,20.74
2022-10-11T10:47:42.067Z,20.76
2022-10-11T10:50:31.642Z,20.80
2022-10-11T10:53:05.103Z,20.83
2022-10-11T10:55:37.619Z,20.85
2022-10-11T10:58:23.100Z,20.87
2022-10-11T11:00:50.713Z,20.93
2022-10-11T11:03:20.192Z,20.98
2022-10-11T11:06:02.334Z,21.01
2022-10-11T11:08:50.131Z,21.03
2022-10-11T11:11:18.031Z,21.06
2022-10-11T11:13:58.227Z,21.10
2022-10-11T11:16:33.574Z,21.15
2022-10-11T11:19:10.175Z,21.21
2022-10-11T11:21:44.020Z,21.30
2022-10-11T11:24:33.222Z,21.39
2022-10-11T11:27:06.771Z,21.47
2022-10-11T11:29:33.029Z,21.49
2022-10-11T11:32:13.876Z,21.52
2022-10-11T11:34:43.286Z,21.53
2022-10-11T11:37:15.438Z,21.54
2022-10-11T11:39:48.488Z,21.57
2022-10-11T11:42:26.941Z,21.59
2022-10-11T11:44:53.705Z,21.61
2022-10-11T11:47:23.430Z,21.64
2022-10-11T11:49:54.554Z,21.66
2022-10-11T11:52:26.818Z,21.67
2022-10-11T11:55:04.129Z,21.67
2022-10-11T11:57:45.903Z,21.63
2022-10-11T12:00:15.770Z,21.61
2022-10-11T12:02:50.198Z,21.58
2022-10-11T12:05:19.676Z,21.52
2022-10-11T12:07:49.118Z,21.46
2022-10-11T12:10:24.612Z,21.38
2022-10-11T12:13:01.465Z,21.28
2022-10-11T12:15:27.972Z,21.20
2022-10-11T12:17:57.602Z,21.11
2022-10-11T12:20:27.009Z,21.03
2022-10-11T12:22:56.301Z,20.95
2022-10-11T12:25:25.503Z,20.89
2022-10-11T12:27:53.202Z,20.83
2022-10-11T12:30:38.249Z,20.78
2022-10-11T12:33:24.940Z,20.73
2022-10-11T12:35:54.298Z,20.69
2022-10-11T12:38:21.022Z,20.67
2022-10-11T12:40:48.080Z,20.66
2022-10-11T12:43:14.401Z,20.68
2022-10-11T12:45:43.713Z,20.72
2022-10-11T12:48:20.274Z,20.78
2022-10-11T12:51:11.069Z,20.86
2022-10-11T12:54:14.669Z,20.96
2022-10-11T12:56:58.587Z,21.09
2022-10-11T12:59:26.689Z,21.20
2022-10-11T13:01:58.155Z,21.28
2022-10-11T13:04:26.834Z,21.37
2022-10-11T13:06:55.373Z,21.44
2022-10-11T13:09:28.069Z,21.52
2022-10-11T13:11:57.094Z,21.60
2022-10-11T13:14:24.498Z,21.67
2022-10-11T13:17:03.456Z,21.74
2022-10-11T13:19:33.088Z,21.82
2022-10-11T13:22:01.925Z,21.89
2022-10-11T13:24:34.119Z,21.94
2022-10-11T13:27:00.488Z,22.01
2022-10-11T13:29:34.417Z,22.07
2022-10-11T13:32:03.544Z,22.13
2022-10-11T13:34:35.288Z,22.17
2022-10-11T13:37:01.833Z,22.21
2022-10-11T13:39:31.199Z,22.23
2022-10-11T13:41:58.584Z,22.27
2022-10-11T13:44:25.351Z,22.30
2022-10-11T13:46:52.348Z,22.33
2022-10-11T13:49:53.257Z,22.34
2022-10-11T13:52:20.066Z,22.34
2022-10-11T13:54:55.707Z,22.33
2022-10-11T13:57:24.901Z,22.29
2022-10-11T13:59:51.174Z,22.24
2022-10-11T14:02:22.306Z,22.21
2022-10-11T14:04:49.125Z,22.15
2022-10-11T14:07:26.578Z,22.11
2022-10-11T14:09:53.759Z,22.06
2022-10-11T14:12:25.826Z,22.01
2022-10-11T14:14:52.457Z,22.00
2022-10-11T14:17:20.422Z,21.97
2022-10-11T14:19:48.312Z,21.94
2022-10-11T14:22:15.986Z,21.89
2022-10-11T14:24:43.104Z,21.86
2022-10-11T14:27:14.563Z,21.82
2022-10-11T14:30:00.345Z,21.79
2022-10-11T14:32:33.109Z,21.73
2022-10-11T14:34:59.973Z,21.68
2022-10-11T14:37:26.443Z,21.65
2022-10-11T14:39:52.772Z,21.62
2022-10-11T14:42:19.062Z,21.57
2022-10-11T14:44:45.511Z,21.54
2022-10-11T14:47:15.758Z,21.50
2022-10-11T14:49:42.389Z,21.44
2022-10-11T14:52:11.445Z,21.40
2022-10-11T14:54:37.917Z,21.34
2022-10-11T14:57:04.781Z,21.28
2022-10-11T14:59:36.590Z,21.23
2022-10-11T15:02:03.983Z,21.18
2022-10-11T15:04:30.251Z,21.13
2022-10-11T15:06:57.484Z,21.07
2022-10-11T15:09:24.226Z,21.03
2022-10-11T15:11:51.369Z,20.96
2022-10-11T15:14:17.620Z,20.91
2022-10-11T15:16:43.877Z,20.85
2022-10-11T15:19:22.107Z,20.80
2022-10-11T15:21:48.695Z,20.73
2022-10-11T15:24:15.328Z,20.68
2022-10-11T15:26:41.626Z,20.63
2022-10-11T15:29:10.666Z,20.56
2022-10-11T15:31:36.895Z,20.51
2022-10-11T15:34:03.383Z,20.45
2022-10-11T15:36:29.667Z,20.43
2022-10-11T15:38:56.355Z,20.37
2022-10-11T15:41:23.847Z,20.33
2022-10-11T15:43:50.213Z,20.30
2022-10-11T15:46:19.353Z,20.28
2022-10-11T15:48:45.847Z,20.26
2022-10-11T15:51:12.457Z,20.25
2022-10-11T15:53:38.904Z,20.24
2022-10-11T15:56:07.581Z,20.24
2022-10-11T15:58:35.696Z,20.23
2022-10-11T16:01:06.879Z,20.22
2022-10-11T16:03:34.381Z,20.20
2022-10-11T16:06:04.842Z,20.17
2022-10-11T16:08:31.848Z,20.14
2022-10-11T16:10:59.065Z,20.10
2022-10-11T16:13:25.346Z,20.06
2022-10-11T16:15:51.824Z,20.03
2022-10-11T16:18:20.164Z,19.98
2022-10-11T16:20:47.483Z,19.95
2022-10-11T16:23:14.717Z,19.91
2022-10-11T16:25:41.173Z,19.86
2022-10-11T16:28:11.022Z,19.80
2022-10-11T16:30:43.083Z,19.74
2022-10-11T16:33:09.410Z,19.67
2022-10-11T16:35:36.176Z,19.60
2022-10-11T16:38:02.596Z,19.54
2022-10-11T16:40:30.077Z,19.48
2022-10-11T16:42:56.382Z,19.41
2022-10-11T16:45:22.920Z,19.34
2022-10-11T16:47:49.370Z,19.24
2022-10-11T16:50:15.619Z,19.16
2022-10-11T16:52:42.098Z,19.09
2022-10-11T16:55:08.571Z,19.03
2022-10-11T16:57:35.072Z,18.94
2022-10-11T17:00:01.506Z,18.88
2022-10-11T17:02:32.259Z,18.80
2022-10-11T17:04:58.912Z,18.73
2022-10-11T17:07:25.272Z,18.63
2022-10-11T17:09:51.565Z,18.55
2022-10-11T17:12:19.488Z,18.47
2022-10-11T17:14:45.837Z,18.40
2022-10-11T17:17:12.132Z,18.33
2022-10-11T17:19:45.019Z,18.23
2022-10-11T17:22:12.105Z,18.17
2022-10-11T17:24:38.631Z,18.07
2022-10-11T17:27:05.473Z,17.98
2022-10-11T17:29:31.778Z,17.90
2022-10-11T17:31:58.149Z,17.84
2022-10-11T17:34:24.427Z,17.76
2022-10-11T17:36:50.769Z,17.70
2022-10-11T17:39:19.143Z,17.64
2022-10-11T17:41:45.929Z,17.59
2022-10-11T17:44:12.552Z,17.52
2022-10-11T17:46:39.090Z,17.47
2022-10-11T17:49:06.226Z,17.44
2022-10-11T17:51:33.125Z,17.38
2022-10-11T17:53:59.545Z,17.33
2022-10-11T17:56:29.540Z,17.30
2022-10-11T17:58:58.297Z,17.24
2022-10-11T18:01:26.048Z,17.20
2022-10-11T18:03:52.399Z,17.16
2022-10-11T18:06:18.895Z,17.12
2022-10-11T18:08:45.164Z,17.06
2022-10-11T18:11:13.086Z,17.02
2022-10-11T18:13:42.532Z,16.98
2022-10-11T18:16:20.689Z,16.93
2022-10-11T18:18:46.994Z,16.89
2022-10-11T18:21:13.635Z,16.86
2022-10-11T18:23:40.766Z,16.82
2022-10-11T18:26:10.117Z,16.78
2022-10-11T18:28:36.565Z,16.74
2022-10-11T18:31:09.996Z,16.72
2022-10-11T18:33:38.758Z,16.68
2022-10-11T18:36:06.453Z,16.63
2022-10-11T18:38:33.681Z,16.58
2022-10-11T18:41:04.644Z,16.55
2022-10-11T18:43:31.090Z,16.51
2022-10-11T18:46:07.688Z,16.47
2022-10-11T18:48:34.418Z,16.41
2022-10-11T18:51:01.583Z,16.38
2022-10-11T18:53:27.884Z,16.34
2022-10-11T18:55:57.831Z,16.31
2022-10-11T18:58:24.125Z,16.29
2022-10-11T19:00:50.435Z,16.25
2022-10-11T19:03:16.930Z,16.22
2022-10-11T19:05:43.340Z,16.19
2022-10-11T19:08:09.602Z,16.15
2022-10-11T19:10:36.354Z,16.13
2022-10-11T19:13:04.000Z,16.08
2022-10-11T19:15:30.229Z,16.05
2022-10-11T19:17:56.660Z,16.01
2022-10-11T19:20:23.180Z,15.98
2022-10-11T19:22:49.474Z,15.94
2022-10-11T19:25:15.905Z,15.91
2022-10-11T19:27:42.436Z,15.89
2022-10-11T19:30:08.825Z,15.85
2022-10-11T19:32:35.097Z,15.83
2022-10-11T19:35:01.370Z,15.80
2022-10-11T19:37:27.964Z,15.76
2022-10-11T19:39:54.171Z,15.75
2022-10-11T19:42:20.471Z,15.71
2022-10-11T19:44:46.873Z,15.70
2022-10-11T19:47:13.247Z,15.67
2022-10-11T19:49:39.488Z,15.64
2022-10-11T19:52:06.034Z,15.61
2022-10-11T19:54:32.274Z,15.59
2022-10-11T19:56:58.775Z,15.57
2022-10-11T19:59:26.734Z,15.54
2022-10-11T20:01:53.522Z,15.51
2022-10-11T20:07:06.718Z,15.47
2022-10-11T20:09:33.101Z,15.42
2022-10-11T20:11:59.372Z,15.41
2022-10-11T20:14:25.752Z,15.37
2022-10-11T20:16:52.290Z,15.39
2022-10-11T20:19:18.710Z,15.38
2022-10-11T20:21:45.300Z,15.36
2022-10-11T20:24:11.820Z,15.34
2022-10-11T20:26:39.180Z,15.31
2022-10-11T20:29:05.430Z,15.29
2022-10-11T20:31:33.077Z,15.26
2022-10-11T20:34:01.669Z,15.24
2022-10-11T20:36:29.922Z,15.20
2022-10-11T20:38:57.084Z,15.17
2022-10-11T20:41:24.564Z,15.16
2022-10-11T20:43:52.617Z,15.14
2022-10-11T20:46:30.064Z,15.12
2022-10-11T20:49:01.787Z,15.09
2022-10-11T20:51:29.172Z,15.06
2022-10-11T20:53:56.521Z,15.05
2022-10-11T20:56:23.186Z,15.03
2022-10-11T20:58:53.525Z,15.00
2022-10-11T21:01:21.073Z,14.98
2022-10-11T21:03:47.393Z,14.96
2022-10-11T21:06:13.707Z,14.93
2022-10-11T21:08:40.384Z,14.89
2022-10-11T21:11:07.472Z,14.86
2022-10-11T21:13:33.709Z,14.85
2022-10-11T21:16:12.194Z,14.81
2022-10-11T21:18:38.896Z,14.77
2022-10-11T21:21:09.318Z,14.73
2022-10-11T21:23:35.664Z,14.70
2022-10-11T21:26:05.428Z,14.68
2022-10-11T21:28:32.054Z,14.65
2022-10-11T21:31:12.156Z,14.61
2022-10-11T21:33:38.894Z,14.59
2022-10-11T21:36:12.377Z,14.56
2022-10-11T21:38:38.825Z,14.53
2022-10-11T21:41:05.947Z,14.51
2022-10-11T21:43:33.291Z,14.48
2022-10-11T21:45:59.627Z,14.44
2022-10-11T21:48:25.972Z,14.43
2022-10-11T21:50:52.942Z,14.39
2022-10-11T21:53:19.185Z,14.37
2022-10-11T21:55:45.601Z,14.33
2022-10-11T21:58:11.864Z,14.31
2022-10-11T22:00:38.185Z,14.28
2022-10-11T22:03:04.481Z,14.26
2022-10-11T22:05:30.881Z,14.24
2022-10-11T22:07:57.239Z,14.20
2022-10-11T22:10:23.519Z,14.17
2022-10-11T22:12:49.963Z,14.16
2022-10-11T22:15:16.232Z,14.14
2022-10-11T22:17:42.652Z,14.10
2022-10-11T22:20:09.689Z,14.09
2022-10-11T22:22:37.769Z,14.07
2022-10-11T22:25:04.426Z,14.06
2022-10-11T22:27:30.835Z,14.05
2022-10-11T22:29:57.231Z,14.03
2022-10-11T22:32:23.639Z,14.00
2022-10-11T22:34:50.071Z,13.99
2022-10-11T22:37:16.359Z,13.97
2022-10-11T22:39:42.810Z,13.94
2022-10-11T22:42:09.022Z,13.91
2022-10-11T22:44:35.320Z,13.88
2022-10-11T22:47:01.895Z,13.84
2022-10-11T22:49:28.342Z,13.82
2022-10-11T22:51:54.559Z,13.78
2022-10-11T22:54:20.982Z,13.76
2022-10-11T22:56:47.321Z,13.73
2022-10-11T22:59:13.763Z,13.71
2022-10-11T23:01:40.204Z,13.70
2022-10-11T23:04:06.550Z,13.67
2022-10-11T23:06:33.003Z,13.64
2022-10-11T23:08:59.268Z,13.62
2022-10-11T23:11:25.679Z,13.60
2022-10-11T23:13:51.971Z,13.58
2022-10-11T23:16:18.451Z,13.57
2022-10-11T23:18:44.962Z,13.55
2022-10-11T23:21:11.410Z,13.53
2022-10-11T23:23:39.553Z,13.51
2022-10-11T23:26:09.363Z,13.48
2022-10-11T23:28:36.367Z,13.45
2022-10-11T23:31:10.020Z,13.42
2022-10-11T23:33:36.288Z,13.38
2022-10-11T23:36:02.890Z,13.35
2022-10-11T23:38:29.564Z,13.33
2022-10-11T23:40:55.816Z,13.30
2022-10-11T23:43:22.867Z,13.28
2022-10-11T23:45:49.379Z,13.25
2022-10-11T23:48:15.647Z,13.23
2022-10-11T23:50:42.405Z,13.20
2022-10-11T23:53:08.685Z,13.17
2022-10-11T23:55:35.114Z,13.12
2022-10-11T23:58:01.402Z,13.10
